Weather History for KCCU - April, 2014

Change the Weather History Date:

Tuesday, April 22, 2014

  Actual Average (KLXV) Record (KLXV)
Temperature  
Mean Temperature 42 °F -  
Max Temperature 46 °F 45 °F 61 °F (2006)
Min Temperature 37 °F 20 °F 3 °F (1984)
Degree Days  
Heating Degree Days 24 32  
Month to date heating degree days 772  
Since 1 July heating degree days 9755  
Cooling Degree Days 0 0  
Month to date cooling degree days 0  
Year to date cooling degree days 0  
Moisture  
Dew Point 24 °F    
Average Humidity 53    
Maximum Humidity 81    
Minimum Humidity 37    
Precipitation  
Precipitation 0.00 in 0.04 in 0.31 in (1999)
Month to date precipitation 0.79  
Year to date precipitation 3.05  
Sea Level Pressure  
Sea Level Pressure 30.25 in    
Wind  
Wind Speed 15 mph (South)    
Max Wind Speed 23 mph    
Max Gust Speed 32 mph    
Visibility 10 miles    
Events Snow    
T = Trace of Precipitation, MM = Missing Value Source: NWS Daily Summary

Daily Weather History Graph

Daily Weather History Graph

Search for Another Location

Airport or City:

Trip Planner

Search our weather history database for the weather conditions in past years. The results will help you decide how hot, cold, wet, or windy it might be!

Date:

Astronomy

Apr. 22, 2014 Rise Set
Actual Time 6:17 AM MDT 7:49 PM MDT
Civil Twilight 5:49 AM MDT 8:17 PM MDT
Nautical Twilight 5:14 AM MDT 8:52 PM MDT
Astronomical Twilight 4:38 AM MDT 9:28 PM MDT
Moon 2:06 AM MDT (4/22) 12:55 PM MDT (4/22)
Length of Visible Light 14h 28m
Length of Day
13h 32m
Last Quarter, 45% of the Moon is Illuminated
Apr 22
Last Quarter
Apr 29
New
May 6
First Quarter
May 14
Full
May 21
Last Quarter

Hourly Weather History & Observations

Time (MDT) Temp. Windchill Dew Point Humidity Pressure Visibility Wind Dir Wind Speed Gust Speed Precip Events Conditions
12:16 AM 37.4 °F 29.8 °F 19.4 °F 48% 30.43 in 10.0 mi South 11.5 mph 18.4 mph N/A   Clear
12:36 AM 37.4 °F 28.9 °F 19.4 °F 48% 30.43 in 10.0 mi South 13.8 mph 21.9 mph N/A   Clear
12:56 AM 37.4 °F 27.8 °F 21.2 °F 52% 30.42 in 10.0 mi South 17.3 mph 23.0 mph N/A   Clear
1:17 AM 37.4 °F 27.5 °F 19.4 °F 48% 30.42 in 10.0 mi South 18.4 mph 26.5 mph N/A   Clear
1:37 AM 37.4 °F 28.5 °F 21.2 °F 52% 30.42 in 10.0 mi South 15.0 mph 23.0 mph N/A   Clear
1:57 AM 37.4 °F 28.5 °F 21.2 °F 52% 30.41 in 10.0 mi South 15.0 mph 20.7 mph N/A   Clear
2:17 AM 37.4 °F 30.8 °F 21.2 °F 52% 30.40 in 10.0 mi SSW 9.2 mph 18.4 mph N/A   Clear
2:37 AM 37.4 °F 28.9 °F 21.2 °F 52% 30.40 in 10.0 mi South 13.8 mph 21.9 mph N/A   Clear
2:56 AM 37.4 °F 28.9 °F 21.2 °F 52% 30.38 in 10.0 mi South 13.8 mph 19.6 mph N/A   Clear
3:16 AM 37.4 °F 28.5 °F 21.2 °F 52% 30.38 in 10.0 mi South 15.0 mph 20.7 mph N/A   Clear
3:36 AM 37.4 °F 28.2 °F 21.2 °F 52% 30.38 in 10.0 mi South 16.1 mph 19.6 mph N/A   Clear
4:16 AM 37.4 °F 30.3 °F 21.2 °F 52% 30.37 in 10.0 mi SW 10.4 mph 18.4 mph N/A   Clear
4:36 AM 37.4 °F 30.3 °F 21.2 °F 52% 30.36 in 10.0 mi SSW 10.4 mph 17.3 mph N/A   Clear
4:56 AM 37.4 °F 30.8 °F 21.2 °F 52% 30.36 in 10.0 mi SSW 9.2 mph 16.1 mph N/A   Clear
5:16 AM 37.4 °F 28.2 °F 21.2 °F 52% 30.36 in 10.0 mi South 16.1 mph 24.2 mph N/A   Clear
5:36 AM 37.4 °F 27.8 °F 21.2 °F 52% 30.35 in 10.0 mi South 17.3 mph 24.2 mph N/A   Clear
5:56 AM 37.4 °F 27.2 °F 21.2 °F 52% 30.35 in 10.0 mi South 19.6 mph 27.6 mph N/A   Clear
6:16 AM 37.4 °F 26.9 °F 21.2 °F 52% 30.35 in 10.0 mi South 20.7 mph 27.6 mph N/A   Clear
6:36 AM 37.4 °F 27.5 °F 21.2 °F 52% 30.35 in 10.0 mi South 18.4 mph 24.2 mph N/A   Clear
6:56 AM 37.4 °F 27.2 °F 21.2 °F 52% 30.35 in 10.0 mi South 19.6 mph - N/A   Clear
7:16 AM 37.4 °F 27.2 °F 23.0 °F 56% 30.35 in 10.0 mi South 19.6 mph - N/A   Clear
7:36 AM 37.4 °F 26.9 °F 21.2 °F 52% 30.35 in 10.0 mi South 20.7 mph 26.5 mph N/A   Clear
7:56 AM 37.4 °F 27.5 °F 21.2 °F 52% 30.35 in 10.0 mi South 18.4 mph 24.2 mph N/A   Clear
8:16 AM 37.4 °F 28.5 °F 21.2 °F 52% 30.34 in 10.0 mi South 15.0 mph - N/A   Clear
8:36 AM 41.0 °F 32.5 °F 23.0 °F 49% 30.34 in 10.0 mi South 17.3 mph - N/A   Clear
8:56 AM 41.0 °F 33.5 °F 23.0 °F 49% 30.33 in 10.0 mi South 13.8 mph 18.4 mph N/A   Clear
9:16 AM 41.0 °F 33.5 °F 21.2 °F 45% 30.33 in 10.0 mi South 13.8 mph 21.9 mph N/A   Clear
9:36 AM 41.0 °F 32.8 °F 23.0 °F 49% 30.32 in 10.0 mi South 16.1 mph 23.0 mph N/A   Clear
9:56 AM 41.0 °F 33.5 °F 23.0 °F 49% 30.31 in 10.0 mi South 13.8 mph - N/A   Clear
10:16 AM 41.0 °F 31.6 °F 23.0 °F 49% 30.31 in 10.0 mi South 20.7 mph 25.3 mph N/A   Clear
10:36 AM 42.8 °F 35.8 °F 23.0 °F 46% 30.31 in 10.0 mi SSW 13.8 mph 27.6 mph N/A   Scattered Clouds
10:56 AM 41.0 °F 33.1 °F 24.8 °F 53% 30.31 in 10.0 mi South 15.0 mph 27.6 mph N/A   Mostly Cloudy
11:16 AM 42.8 °F 34.8 °F 23.0 °F 46% 30.30 in 10.0 mi SW 17.3 mph 24.2 mph N/A   Mostly Cloudy
11:36 AM 44.6 °F 37.8 °F 23.0 °F 43% 30.29 in 10.0 mi SSW 15.0 mph 25.3 mph N/A   Mostly Cloudy
11:56 AM 44.6 °F 36.4 °F 21.2 °F 39% 30.28 in 10.0 mi South 20.7 mph 29.9 mph N/A   Mostly Cloudy
12:16 PM 44.6 °F 39.2 °F 23.0 °F 43% 30.28 in 10.0 mi SSW 10.4 mph 25.3 mph N/A   Mostly Cloudy
12:36 PM 44.6 °F 36.6 °F 21.2 °F 39% 30.26 in 10.0 mi South 19.6 mph 28.8 mph N/A   Mostly Cloudy
12:57 PM 44.6 °F 38.1 °F 21.2 °F 39% 30.25 in 10.0 mi SW 13.8 mph 25.3 mph N/A   Scattered Clouds
1:17 PM 44.6 °F 38.8 °F 19.4 °F 37% 30.24 in 10.0 mi SSW 11.5 mph 25.3 mph N/A   Scattered Clouds
1:37 PM 44.6 °F 38.4 °F 21.2 °F 39% 30.24 in 10.0 mi WSW 12.7 mph 28.8 mph N/A   Mostly Cloudy
1:56 PM 46.4 °F 42.4 °F 23.0 °F 40% 30.23 in 10.0 mi SSW 8.1 mph 20.7 mph N/A   Overcast
2:16 PM 44.6 °F 37.8 °F 24.8 °F 46% 30.23 in 10.0 mi South 15.0 mph 26.5 mph N/A   Overcast
2:36 PM 44.6 °F 42.2 °F 23.0 °F 43% 30.22 in 10.0 mi WSW 4.6 mph - N/A   Overcast
2:56 PM 44.6 °F 39.2 °F 23.0 °F 43% 30.21 in 10.0 mi SSW 10.4 mph 16.1 mph N/A   Mostly Cloudy
3:16 PM 44.6 °F 39.7 °F 23.0 °F 43% 30.20 in 10.0 mi SSW 9.2 mph 23.0 mph N/A   Overcast
3:36 PM 44.6 °F 37.4 °F 24.8 °F 46% 30.20 in 5.0 mi WSW 16.1 mph 21.9 mph N/A   Unknown
3:56 PM 41.0 °F 32.2 °F 30.2 °F 65% 30.20 in 2.5 mi South 18.4 mph 25.3 mph N/A   Unknown
4:16 PM 41.0 °F 33.9 °F 28.4 °F 61% 30.18 in 10.0 mi South 12.7 mph - N/A   Mostly Cloudy
4:36 PM 42.8 °F 36.6 °F 28.4 °F 57% 30.17 in 10.0 mi South 11.5 mph 23.0 mph N/A   Scattered Clouds
4:56 PM 44.6 °F 39.7 °F 28.4 °F 53% 30.15 in 10.0 mi South 9.2 mph 20.7 mph N/A   Scattered Clouds
5:16 PM 44.6 °F 37.2 °F 24.8 °F 46% 30.15 in 10.0 mi South 17.3 mph 25.3 mph N/A   Scattered Clouds
5:36 PM 44.6 °F 36.1 °F 24.8 °F 46% 30.14 in 10.0 mi South 21.9 mph 26.5 mph N/A   Clear
5:56 PM 44.6 °F 37.8 °F 26.6 °F 49% 30.12 in 10.0 mi South 15.0 mph - N/A   Clear
6:16 PM 42.8 °F 36.2 °F 26.6 °F 53% 30.12 in 10.0 mi South 12.7 mph 17.3 mph N/A   Clear
6:36 PM 41.0 °F 31.9 °F 26.6 °F 57% 30.12 in 10.0 mi South 19.6 mph 28.8 mph N/A   Mostly Cloudy
6:56 PM 37.4 °F 26.6 °F 32.0 °F 81% 30.12 in 1.0 mi SSE 21.9 mph 31.1 mph N/A Snow Light Snow
7:16 PM 37.4 °F 26.9 °F 32.0 °F 81% 30.10 in 10.0 mi South 20.7 mph 24.2 mph N/A   Mostly Cloudy
7:36 PM 37.4 °F 27.5 °F 28.4 °F 70% 30.10 in 10.0 mi South 18.4 mph - N/A   Scattered Clouds
7:56 PM 37.4 °F 27.2 °F 28.4 °F 70% 30.09 in 10.0 mi South 19.6 mph 32.2 mph N/A   Clear
8:16 PM 37.4 °F 27.2 °F 28.4 °F 70% 30.08 in 10.0 mi South 19.6 mph 24.2 mph N/A   Clear
8:36 PM 37.4 °F 26.6 °F 26.6 °F 65% 30.08 in 10.0 mi South 21.9 mph - N/A   Clear
8:56 PM 37.4 °F 26.9 °F 26.6 °F 65% 30.08 in 10.0 mi South 20.7 mph 28.8 mph N/A   Clear
9:16 PM 39.2 °F 29.3 °F 26.6 °F 61% 30.08 in 10.0 mi SSE 20.7 mph 31.1 mph N/A   Scattered Clouds
9:36 PM 39.2 °F 29.0 °F 26.6 °F 61% 30.08 in 10.0 mi South 21.9 mph 26.5 mph N/A   Scattered Clouds
9:56 PM 39.2 °F 28.7 °F 26.6 °F 61% 30.07 in 10.0 mi South 23.0 mph - N/A   Scattered Clouds
10:16 PM 37.4 °F 26.9 °F 26.6 °F 65% 30.07 in 10.0 mi South 20.7 mph 26.5 mph N/A   Mostly Cloudy
10:36 PM 37.4 °F 26.4 °F 26.6 °F 65% 30.05 in 10.0 mi South 23.0 mph - N/A   Mostly Cloudy
10:56 PM 39.2 °F 29.3 °F 26.6 °F 61% 30.05 in 10.0 mi South 20.7 mph 24.2 mph N/A   Mostly Cloudy
11:16 PM 37.4 °F 26.6 °F 26.6 °F 65% 30.03 in 10.0 mi South 21.9 mph 29.9 mph N/A   Scattered Clouds
11:36 PM 37.4 °F 26.4 °F 26.6 °F 65% 30.03 in 10.0 mi South 23.0 mph 26.5 mph N/A   Scattered Clouds
11:56 PM 37.4 °F 26.4 °F 26.6 °F 65% 30.03 in 10.0 mi South 23.0 mph 27.6 mph N/A   Mostly Cloudy